Terminal Aerodrome Forecast
Issued by NWS

Home | Current Version | Previous Version | Text Only | Print | Product List | Glossary On
Versions: 1 2 3 4 5 6 7 8 9 10 11 12 13 14 15 16 17 18 19 20 21 22 23 24 25 26 27 28 29 30 31 32
000
FTUS45 KGJT 201316 AAA
TAFASE
TAF AMD
KASE 201316Z 2013/2112 VRB03KT P6SM VCSH FEW005 SCT045 OVC070
      TEMPO 2013/2014 -RA FEW005 SCT050 BKN060
     FM201800 36006KT P6SM SCT070 BKN100
     FM202100 32007KT P6SM VCTS SCT070CB BKN100
     FM210200 20006KT P6SM BKN100=

USA.gov is the U.S. government's official web portal to all federal, state and local government web resources and services.